sensor_id;sensor_type;location;lat;lon;timestamp;pressure;altitude;pressure_sealevel;temperature;humidity
28008;BME280;15333;50.010;20.020;2022-11-18T00:01:29;97502.81;;;0.08;100.00
28008;BME280;15333;50.010;20.020;2022-11-18T00:04:30;97502.50;;;0.14;100.00
28008;BME280;15333;50.010;20.020;2022-11-18T00:07:30;97502.31;;;0.17;100.00
28008;BME280;15333;50.010;20.020;2022-11-18T00:10:31;97505.22;;;0.13;100.00
28008;BME280;15333;50.010;20.020;2022-11-18T00:13:32;97509.97;;;0.06;100.00
28008;BME280;15333;50.010;20.020;2022-11-18T00:17:02;97505.44;;;0.08;100.00
28008;BME280;15333;50.010;20.020;2022-11-18T00:20:03;97499.25;;;0.09;100.00
28008;BME280;15333;50.010;20.020;2022-11-18T00:23:04;97495.72;;;0.10;100.00
28008;BME280;15333;50.010;20.020;2022-11-18T00:26:11;97492.31;;;0.08;100.00
28008;BME280;15333;50.010;20.020;2022-11-18T00:29:12;97493.25;;;0.07;100.00
28008;BME280;15333;50.010;20.020;2022-11-18T00:32:13;97501.16;;;0.07;100.00
28008;BME280;15333;50.010;20.020;2022-11-18T00:35:14;97494.19;;;0.06;100.00
28008;BME280;15333;50.010;20.020;2022-11-18T00:38:15;97497.41;;;0.11;100.00
28008;BME280;15333;50.010;20.020;2022-11-18T00:41:16;97496.56;;;0.11;100.00
28008;BME280;15333;50.010;20.020;2022-11-18T00:44:16;97495.88;;;0.07;100.00
28008;BME280;15333;50.010;20.020;2022-11-18T00:47:17;97494.00;;;0.09;100.00
28008;BME280;15333;50.010;20.020;2022-11-18T00:50:18;97487.66;;;0.13;100.00
28008;BME280;15333;50.010;20.020;2022-11-18T00:53:21;97480.50;;;0.15;100.00
28008;BME280;15333;50.010;20.020;2022-11-18T00:56:22;97488.59;;;0.12;100.00
28008;BME280;15333;50.010;20.020;2022-11-18T00:59:23;97488.75;;;0.09;100.00
28008;BME280;15333;50.010;20.020;2022-11-18T01:02:24;97490.44;;;0.10;100.00
28008;BME280;15333;50.010;20.020;2022-11-18T01:05:25;97488.75;;;0.09;100.00
28008;BME280;15333;50.010;20.020;2022-11-18T01:08:25;97481.03;;;0.06;100.00
28008;BME280;15333;50.010;20.020;2022-11-18T01:11:26;97480.25;;;0.04;100.00
28008;BME280;15333;50.010;20.020;2022-11-18T01:14:45;97481.19;;;0.03;100.00
28008;BME280;15333;50.010;20.020;2022-11-18T01:17:46;97478.56;;;0.03;100.00
28008;BME280;15333;50.010;20.020;2022-11-18T01:20:47;97481.78;;;0.08;100.00
28008;BME280;15333;50.010;20.020;2022-11-18T01:23:48;97483.81;;;0.03;100.00
28008;BME280;15333;50.010;20.020;2022-11-18T01:26:49;97484.81;;;0.00;100.00
28008;BME280;15333;50.010;20.020;2022-11-18T01:29:50;97482.47;;;-0.04;100.00
28008;BME280;15333;50.010;20.020;2022-11-18T01:32:50;97475.50;;;-0.05;100.00
28008;BME280;15333;50.010;20.020;2022-11-18T01:35:51;97468.72;;;-0.09;100.00
28008;BME280;15333;50.010;20.020;2022-11-18T01:38:53;97479.06;;;-0.06;100.00
28008;BME280;15333;50.010;20.020;2022-11-18T01:41:55;97475.50;;;-0.05;100.00
28008;BME280;15333;50.010;20.020;2022-11-18T01:48:24;97482.47;;;-0.04;100.00
28008;BME280;15333;50.010;20.020;2022-11-18T01:51:31;97482.47;;;-0.04;100.00
28008;BME280;15333;50.010;20.020;2022-11-18T01:54:36;97474.56;;;-0.04;100.00
28008;BME280;15333;50.010;20.020;2022-11-18T01:57:40;97475.50;;;-0.05;100.00
28008;BME280;15333;50.010;20.020;2022-11-18T02:00:42;97473.63;;;-0.03;100.00
28008;BME280;15333;50.010;20.020;2022-11-18T02:03:44;97469.31;;;-0.04;100.00
28008;BME280;15333;50.010;20.020;2022-11-18T02:06:46;97469.38;;;-0.06;100.00
28008;BME280;15333;50.010;20.020;2022-11-18T02:09:47;97458.00;;;-0.06;100.00
28008;BME280;15333;50.010;20.020;2022-11-18T02:12:50;97465.69;;;-0.02;100.00
28008;BME280;15333;50.010;20.020;2022-11-18T02:16:09;97450.75;;;-0.01;100.00
28008;BME280;15333;50.010;20.020;2022-11-18T02:19:46;97450.56;;;0.02;100.00
28008;BME280;15333;50.010;20.020;2022-11-18T02:26:27;97440.47;;;-0.06;100.00
28008;BME280;15333;50.010;20.020;2022-11-18T02:29:46;97428.00;;;-0.02;100.00
28008;BME280;15333;50.010;20.020;2022-11-18T02:32:58;97426.66;;;-0.09;100.00
28008;BME280;15333;50.010;20.020;2022-11-18T02:39:11;97430.88;;;-0.22;100.00
28008;BME280;15333;50.010;20.020;2022-11-18T02:42:15;97427.56;;;-0.26;100.00
28008;BME280;15333;50.010;20.020;2022-11-18T02:45:18;97425.94;;;-0.28;100.00
28008;BME280;15333;50.010;20.020;2022-11-18T02:48:21;97426.28;;;-0.34;100.00
28008;BME280;15333;50.010;20.020;2022-11-18T02:51:26;97432.44;;;-0.35;100.00
28008;BME280;15333;50.010;20.020;2022-11-18T02:54:28;97437.63;;;-0.34;100.00
28008;BME280;15333;50.010;20.020;2022-11-18T02:57:30;97440.44;;;-0.37;100.00
28008;BME280;15333;50.010;20.020;2022-11-18T03:00:33;97454.44;;;-0.36;100.00
28008;BME280;15333;50.010;20.020;2022-11-18T03:03:35;97442.22;;;-0.37;100.00
28008;BME280;15333;50.010;20.020;2022-11-18T03:06:41;97435.41;;;-0.42;100.00
28008;BME280;15333;50.010;20.020;2022-11-18T03:09:45;97430.00;;;-0.38;100.00
28008;BME280;15333;50.010;20.020;2022-11-18T03:13:04;97438.81;;;-0.40;100.00
28008;BME280;15333;50.010;20.020;2022-11-18T03:16:13;97426.59;;;-0.41;100.00
28008;BME280;15333;50.010;20.020;2022-11-18T03:19:27;97418.78;;;-0.42;100.00
28008;BME280;15333;50.010;20.020;2022-11-18T03:22:39;97417.28;;;-0.46;100.00
28008;BME280;15333;50.010;20.020;2022-11-18T03:29:24;97419.97;;;-0.48;100.00
28008;BME280;15333;50.010;20.020;2022-11-18T03:32:20;97416.50;;;-0.48;100.00
28008;BME280;15333;50.010;20.020;2022-11-18T03:35:26;97419.97;;;-0.48;100.00
28008;BME280;15333;50.010;20.020;2022-11-18T03:38:30;97421.59;;;-0.45;100.00
28008;BME280;15333;50.010;20.020;2022-11-18T03:41:37;97423.19;;;-0.43;100.00
28008;BME280;15333;50.010;20.020;2022-11-18T03:44:41;97428.78;;;-0.49;100.00
28008;BME280;15333;50.010;20.020;2022-11-18T03:47:49;97417.94;;;-0.43;100.00
28008;BME280;15333;50.010;20.020;2022-11-18T03:51:06;97416.09;;;-0.41;100.00
28008;BME280;15333;50.010;20.020;2022-11-18T03:54:14;97413.72;;;-0.45;100.00
28008;BME280;15333;50.010;20.020;2022-11-18T03:57:23;97414.38;;;-0.42;100.00
28008;BME280;15333;50.010;20.020;2022-11-18T04:00:29;97406.06;;;-0.50;100.00
28008;BME280;15333;50.010;20.020;2022-11-18T04:03:32;97404.41;;;-0.51;100.00
28008;BME280;15333;50.010;20.020;2022-11-18T04:06:38;97409.66;;;-0.51;100.00
28008;BME280;15333;50.010;20.020;2022-11-18T04:09:45;97408.81;;;-0.51;100.00
28008;BME280;15333;50.010;20.020;2022-11-18T04:13:01;97391.34;;;-0.52;100.00
28008;BME280;15333;50.010;20.020;2022-11-18T04:16:05;97387.25;;;-0.58;100.00
28008;BME280;15333;50.010;20.020;2022-11-18T04:19:07;97394.38;;;-0.60;100.00
28008;BME280;15333;50.010;20.020;2022-11-18T04:22:09;97392.66;;;-0.61;100.00
28008;BME280;15333;50.010;20.020;2022-11-18T04:25:10;97385.78;;;-0.63;100.00
28008;BME280;15333;50.010;20.020;2022-11-18T04:28:11;97378.16;;;-0.68;100.00
28008;BME280;15333;50.010;20.020;2022-11-18T04:31:12;97384.19;;;-0.66;100.00
28008;BME280;15333;50.010;20.020;2022-11-18T04:34:12;97381.38;;;-0.63;100.00
28008;BME280;15333;50.010;20.020;2022-11-18T04:37:15;97389.13;;;-0.60;100.00
28008;BME280;15333;50.010;20.020;2022-11-18T04:40:16;97389.28;;;-0.63;100.00
28008;BME280;15333;50.010;20.020;2022-11-18T04:43:17;97388.94;;;-0.57;100.00
28008;BME280;15333;50.010;20.020;2022-11-18T04:46:17;97377.59;;;-0.57;100.00
28008;BME280;15333;50.010;20.020;2022-11-18T04:49:18;97381.81;;;-0.55;100.00
28008;BME280;15333;50.010;20.020;2022-11-18T04:52:19;97382.69;;;-0.54;100.00
28008;BME280;15333;50.010;20.020;2022-11-18T04:55:20;97386.94;;;-0.52;100.00
28008;BME280;15333;50.010;20.020;2022-11-18T04:58:21;97387.25;;;-0.58;100.00
28008;BME280;15333;50.010;20.020;2022-11-18T05:01:22;97388.25;;;-0.60;100.00
28008;BME280;15333;50.010;20.020;2022-11-18T05:04:26;97385.50;;;-0.57;100.00
28008;BME280;15333;50.010;20.020;2022-11-18T05:07:27;97382.00;;;-0.58;100.00
28008;BME280;15333;50.010;20.020;2022-11-18T05:10:28;97383.69;;;-0.57;100.00
28008;BME280;15333;50.010;20.020;2022-11-18T05:13:29;97391.75;;;-0.60;100.00
28008;BME280;15333;50.010;20.020;2022-11-18T05:16:29;97394.53;;;-0.63;100.00
28008;BME280;15333;50.010;20.020;2022-11-18T05:19:30;97398.63;;;-0.57;100.00
28008;BME280;15333;50.010;20.020;2022-11-18T05:22:31;97411.06;;;-0.61;100.00
28008;BME280;15333;50.010;20.020;2022-11-18T05:25:32;97416.25;;;-0.59;100.00
28008;BME280;15333;50.010;20.020;2022-11-18T05:28:35;97401.31;;;-0.59;100.00
28008;BME280;15333;50.010;20.020;2022-11-18T05:31:36;97418.94;;;-0.61;100.00
28008;BME280;15333;50.010;20.020;2022-11-18T05:34:38;97409.94;;;-0.57;100.00
28008;BME280;15333;50.010;20.020;2022-11-18T05:37:39;97407.19;;;-0.54;100.00
28008;BME280;15333;50.010;20.020;2022-11-18T05:40:43;97408.19;;;-0.56;100.00
28008;BME280;15333;50.010;20.020;2022-11-18T05:43:44;97411.56;;;-0.54;100.00
28008;BME280;15333;50.010;20.020;2022-11-18T05:46:45;97415.84;;;-0.52;100.00
28008;BME280;15333;50.010;20.020;2022-11-18T05:49:46;97416.56;;;-0.50;100.00
28008;BME280;15333;50.010;20.020;2022-11-18T05:52:46;97418.97;;;-0.45;100.00
28008;BME280;15333;50.010;20.020;2022-11-18T05:56:05;97417.88;;;-0.41;100.00
28008;BME280;15333;50.010;20.020;2022-11-18T05:59:07;97419.66;;;-0.42;100.00
28008;BME280;15333;50.010;20.020;2022-11-18T06:02:17;97414.72;;;-0.48;100.00
28008;BME280;15333;50.010;20.020;2022-11-18T06:05:20;97428.56;;;-0.44;100.00
28008;BME280;15333;50.010;20.020;2022-11-18T06:08:24;97430.50;;;-0.48;100.00
28008;BME280;15333;50.010;20.020;2022-11-18T06:11:37;97442.69;;;-0.47;100.00
28008;BME280;15333;50.010;20.020;2022-11-18T06:14:43;97442.69;;;-0.47;100.00
28008;BME280;15333;50.010;20.020;2022-11-18T06:17:53;97438.56;;;-0.51;100.00
28008;BME280;15333;50.010;20.020;2022-11-18T06:21:02;97442.03;;;-0.50;100.00
28008;BME280;15333;50.010;20.020;2022-11-18T06:24:04;97437.44;;;-0.47;100.00
28008;BME280;15333;50.010;20.020;2022-11-18T06:27:05;97442.69;;;-0.47;100.00
28008;BME280;15333;50.010;20.020;2022-11-18T06:30:06;97445.25;;;-0.45;100.00
28008;BME280;15333;50.010;20.020;2022-11-18T06:33:08;97445.06;;;-0.42;100.00
28008;BME280;15333;50.010;20.020;2022-11-18T06:36:08;97448.81;;;-0.46;100.00
28008;BME280;15333;50.010;20.020;2022-11-18T06:39:09;97457.47;;;-0.44;100.00
28008;BME280;15333;50.010;20.020;2022-11-18T06:42:10;97462.63;;;-0.43;100.00
28008;BME280;15333;50.010;20.020;2022-11-18T06:45:11;97470.50;;;-0.43;100.00
28008;BME280;15333;50.010;20.020;2022-11-18T06:48:12;97467.81;;;-0.41;100.00
28008;BME280;15333;50.010;20.020;2022-11-18T06:51:13;97463.72;;;-0.47;100.00
28008;BME280;15333;50.010;20.020;2022-11-18T06:54:13;97466.59;;;-0.51;100.00
28008;BME280;15333;50.010;20.020;2022-11-18T06:57:15;97470.84;;;-0.49;100.00
28008;BME280;15333;50.010;20.020;2022-11-18T07:00:16;97460.50;;;-0.52;100.00
28008;BME280;15333;50.010;20.020;2022-11-18T07:03:17;97475.88;;;-0.44;100.00
28008;BME280;15333;50.010;20.020;2022-11-18T07:06:20;97485.59;;;-0.46;100.00
28008;BME280;15333;50.010;20.020;2022-11-18T07:09:22;97494.25;;;-0.44;100.00
28008;BME280;15333;50.010;20.020;2022-11-18T07:12:23;97486.59;;;-0.49;100.00
28008;BME280;15333;50.010;20.020;2022-11-18T07:15:24;97488.28;;;-0.48;100.00
28008;BME280;15333;50.010;20.020;2022-11-18T07:18:24;97484.06;;;-0.50;100.00
28008;BME280;15333;50.010;20.020;2022-11-18T07:21:27;97478.72;;;-0.49;100.00
28008;BME280;15333;50.010;20.020;2022-11-18T07:24:28;97484.06;;;-0.50;100.00
28008;BME280;15333;50.010;20.020;2022-11-18T07:27:29;97469.13;;;-0.50;100.00
28008;BME280;15333;50.010;20.020;2022-11-18T07:30:29;97474.84;;;-0.42;100.00
28008;BME280;15333;50.010;20.020;2022-11-18T07:33:31;97470.22;;;-0.36;100.00
28008;BME280;15333;50.010;20.020;2022-11-18T07:36:33;97471.06;;;-0.36;100.00
28008;BME280;15333;50.010;20.020;2022-11-18T07:39:34;97469.34;;;-0.37;100.00
28008;BME280;15333;50.010;20.020;2022-11-18T07:42:35;97466.81;;;-0.38;100.00
28008;BME280;15333;50.010;20.020;2022-11-18T07:45:55;97457.66;;;-0.31;100.00
28008;BME280;15333;50.010;20.020;2022-11-18T07:48:58;97455.63;;;-0.26;100.00
28008;BME280;15333;50.010;20.020;2022-11-18T07:51:59;97451.28;;;-0.27;100.00
28008;BME280;15333;50.010;20.020;2022-11-18T07:55:00;97442.88;;;-0.34;100.00
28008;BME280;15333;50.010;20.020;2022-11-18T07:58:01;97448.66;;;-0.43;100.00
28008;BME280;15333;50.010;20.020;2022-11-18T08:01:11;97457.28;;;-0.41;100.00
28008;BME280;15333;50.010;20.020;2022-11-18T08:04:13;97469.50;;;-0.40;100.00
28008;BME280;15333;50.010;20.020;2022-11-18T08:07:14;97474.84;;;-0.42;100.00
28008;BME280;15333;50.010;20.020;2022-11-18T08:10:15;97465.09;;;-0.40;100.00
28008;BME280;15333;50.010;20.020;2022-11-18T08:13:16;97463.91;;;-0.34;100.00
28008;BME280;15333;50.010;20.020;2022-11-18T08:16:19;97461.69;;;-0.42;100.00
28008;BME280;15333;50.010;20.020;2022-11-18T08:19:20;97468.66;;;-0.41;100.00
28008;BME280;15333;50.010;20.020;2022-11-18T08:22:21;97463.06;;;-0.34;100.00
28008;BME280;15333;50.010;20.020;2022-11-18T08:25:22;97462.91;;;-0.31;100.00
28008;BME280;15333;50.010;20.020;2022-11-18T08:28:23;97466.47;;;-0.32;100.00
28008;BME280;15333;50.010;20.020;2022-11-18T08:31:25;97470.03;;;-0.33;100.00
28008;BME280;15333;50.010;20.020;2022-11-18T08:34:27;97464.28;;;-0.24;100.00
28008;BME280;15333;50.010;20.020;2022-11-18T08:37:27;97472.72;;;-0.35;100.00
28008;BME280;15333;50.010;20.020;2022-11-18T08:40:28;97473.44;;;-0.31;100.00
28008;BME280;15333;50.010;20.020;2022-11-18T08:43:29;97471.56;;;-0.29;100.00
28008;BME280;15333;50.010;20.020;2022-11-18T08:46:30;97474.81;;;-0.24;100.00
28008;BME280;15333;50.010;20.020;2022-11-18T08:49:31;97490.38;;;-0.21;100.00
28008;BME280;15333;50.010;20.020;2022-11-18T08:52:32;97494.72;;;-0.20;100.00
28008;BME280;15333;50.010;20.020;2022-11-18T08:55:32;97496.94;;;-0.13;100.00
28008;BME280;15333;50.010;20.020;2022-11-18T08:58:33;97495.34;;;-0.15;100.00
28008;BME280;15333;50.010;20.020;2022-11-18T09:01:35;97491.16;;;-0.19;100.00
28008;BME280;15333;50.010;20.020;2022-11-18T09:04:37;97507.88;;;-0.20;100.00
28008;BME280;15333;50.010;20.020;2022-11-18T09:07:37;97502.94;;;-0.26;100.00
28008;BME280;15333;50.010;20.020;2022-11-18T09:10:38;97502.94;;;-0.26;100.00
28008;BME280;15333;50.010;20.020;2022-11-18T09:13:39;97498.28;;;-0.21;100.00
28008;BME280;15333;50.010;20.020;2022-11-18T09:16:40;97498.59;;;-0.27;100.00
28008;BME280;15333;50.010;20.020;2022-11-18T09:19:42;97492.75;;;-0.32;100.00
28008;BME280;15333;50.010;20.020;2022-11-18T09:22:43;97493.94;;;-0.38;100.00
28008;BME280;15333;50.010;20.020;2022-11-18T09:25:43;97503.97;;;-0.29;100.00
28008;BME280;15333;50.010;20.020;2022-11-18T09:28:44;97505.75;;;-0.29;100.00
28008;BME280;15333;50.010;20.020;2022-11-18T09:31:45;97502.94;;;-0.26;100.00
28008;BME280;15333;50.010;20.020;2022-11-18T09:34:46;97508.03;;;-0.23;100.00
28008;BME280;15333;50.010;20.020;2022-11-18T09:37:47;97509.56;;;-0.19;100.00
28008;BME280;15333;50.010;20.020;2022-11-18T09:41:04;97512.66;;;-0.11;100.00
28008;BME280;15333;50.010;20.020;2022-11-18T09:47:31;97500.72;;;-0.01;100.00
28008;BME280;15333;50.010;20.020;2022-11-18T09:50:32;97500.53;;;0.02;100.00
28008;BME280;15333;50.010;20.020;2022-11-18T09:53:33;97519.28;;;-0.04;100.00
28008;BME280;15333;50.010;20.020;2022-11-18T09:56:34;97519.28;;;-0.04;100.00
28008;BME280;15333;50.010;20.020;2022-11-18T09:59:35;97512.22;;;-0.04;100.00
28008;BME280;15333;50.010;20.020;2022-11-18T10:09:32;97515.38;;;0.03;100.00
28008;BME280;15333;50.010;20.020;2022-11-18T10:12:40;97510.38;;;-0.02;100.00
28008;BME280;15333;50.010;20.020;2022-11-18T10:15:59;97508.59;;;-0.01;100.00
28008;BME280;15333;50.010;20.020;2022-11-18T10:19:25;97505.78;;;0.02;100.00
28008;BME280;15333;50.010;20.020;2022-11-18T10:25:28;97502.81;;;0.08;100.00
28008;BME280;15333;50.010;20.020;2022-11-18T10:28:29;97511.81;;;0.04;100.00
28008;BME280;15333;50.010;20.020;2022-11-18T10:31:30;97506.72;;;0.01;100.00
28008;BME280;15333;50.010;20.020;2022-11-18T10:34:33;97494.81;;;-0.06;100.00
28008;BME280;15333;50.010;20.020;2022-11-18T10:37:34;97497.72;;;-0.11;100.00
28008;BME280;15333;50.010;20.020;2022-11-18T10:40:41;97500.59;;;-0.15;100.00
28008;BME280;15333;50.010;20.020;2022-11-18T10:46:45;97513.31;;;-0.23;100.00
28008;BME280;15333;50.010;20.020;2022-11-18T10:49:46;97521.66;;;-0.32;100.00
28008;BME280;15333;50.010;20.020;2022-11-18T10:52:51;97520.75;;;-0.31;100.00
28008;BME280;15333;50.010;20.020;2022-11-18T10:56:30;97521.22;;;-0.41;100.00
28008;BME280;15333;50.010;20.020;2022-11-18T10:59:32;97514.09;;;-0.38;100.00
28008;BME280;15333;50.010;20.020;2022-11-18T11:02:43;97515.72;;;-0.36;100.00
28008;BME280;15333;50.010;20.020;2022-11-18T11:05:44;97517.00;;;-0.27;100.00
28008;BME280;15333;50.010;20.020;2022-11-18T11:09:00;97512.53;;;-0.25;100.00
28008;BME280;15333;50.010;20.020;2022-11-18T11:12:12;97517.00;;;-0.27;100.00
28008;BME280;15333;50.010;20.020;2022-11-18T11:15:30;97508.38;;;-0.14;100.00
28008;BME280;15333;50.010;20.020;2022-11-18T11:18:36;97522.97;;;-0.24;100.00
28008;BME280;15333;50.010;20.020;2022-11-18T11:21:41;97534.34;;;-0.23;100.00
28008;BME280;15333;50.010;20.020;2022-11-18T11:24:42;97527.38;;;-0.24;100.00
28008;BME280;15333;50.010;20.020;2022-11-18T11:27:58;97531.78;;;-0.25;100.00
28008;BME280;15333;50.010;20.020;2022-11-18T11:31:14;97528.78;;;-0.34;100.00
28008;BME280;15333;50.010;20.020;2022-11-18T11:34:25;97537.31;;;-0.47;100.00
28008;BME280;15333;50.010;20.020;2022-11-18T11:37:51;97530.66;;;-0.54;100.00
28008;BME280;15333;50.010;20.020;2022-11-18T11:48:17;97507.66;;;-0.66;100.00
28008;BME280;15333;50.010;20.020;2022-11-18T11:51:49;97510.69;;;-0.73;100.00
28008;BME280;15333;50.010;20.020;2022-11-18T11:55:04;97516.31;;;-0.81;100.00
28008;BME280;15333;50.010;20.020;2022-11-18T11:58:38;97513.09;;;-0.86;100.00
28008;BME280;15333;50.010;20.020;2022-11-18T12:05:38;97498.63;;;-0.95;100.00
28008;BME280;15333;50.010;20.020;2022-11-18T12:08:49;97517.16;;;-0.98;100.00
28008;BME280;15333;50.010;20.020;2022-11-18T12:11:58;97506.72;;;-0.99;100.00
28008;BME280;15333;50.010;20.020;2022-11-18T12:15:15;97514.28;;;-1.10;100.00
28008;BME280;15333;50.010;20.020;2022-11-18T12:24:46;97529.25;;;-1.12;100.00
28008;BME280;15333;50.010;20.020;2022-11-18T12:30:47;97519.84;;;-1.16;100.00
28008;BME280;15333;50.010;20.020;2022-11-18T12:33:59;97522.84;;;-1.24;100.00
28008;BME280;15333;50.010;20.020;2022-11-18T12:40:52;97540.59;;;-1.29;100.00
28008;BME280;15333;50.010;20.020;2022-11-18T12:44:13;97537.25;;;-1.33;100.00
28008;BME280;15333;50.010;20.020;2022-11-18T12:50:49;97548.84;;;-1.37;100.00
28008;BME280;15333;50.010;20.020;2022-11-18T12:53:52;97551.94;;;-1.29;100.00
28008;BME280;15333;50.010;20.020;2022-11-18T12:56:54;97550.38;;;-1.33;100.00
28008;BME280;15333;50.010;20.020;2022-11-18T12:59:57;97551.16;;;-1.31;100.00
28008;BME280;15333;50.010;20.020;2022-11-18T13:03:00;97551.66;;;-1.23;100.00
28008;BME280;15333;50.010;20.020;2022-11-18T13:06:06;97557.03;;;-1.26;100.00
28008;BME280;15333;50.010;20.020;2022-11-18T13:09:23;97557.09;;;-1.27;100.00
28008;BME280;15333;50.010;20.020;2022-11-18T13:12:28;97559.97;;;-1.32;100.00
28008;BME280;15333;50.010;20.020;2022-11-18T13:15:29;97554.63;;;-1.30;100.00
28008;BME280;15333;50.010;20.020;2022-11-18T13:18:53;97561.78;;;-1.34;100.00
28008;BME280;15333;50.010;20.020;2022-11-18T13:21:55;97564.28;;;-1.31;100.00
28008;BME280;15333;50.010;20.020;2022-11-18T13:25:25;97576.41;;;-1.28;100.00
28008;BME280;15333;50.010;20.020;2022-11-18T13:28:27;97582.66;;;-1.31;100.00
28008;BME280;15333;50.010;20.020;2022-11-18T13:35:17;97589.81;;;-1.34;100.00
28008;BME280;15333;50.010;20.020;2022-11-18T13:38:23;97589.91;;;-1.36;100.00
28008;BME280;15333;50.010;20.020;2022-11-18T13:41:26;97589.13;;;-1.38;100.00
28008;BME280;15333;50.010;20.020;2022-11-18T13:44:35;97593.50;;;-1.38;100.00
28008;BME280;15333;50.010;20.020;2022-11-18T13:47:54;97592.16;;;-1.47;100.00
28008;BME280;15333;50.010;20.020;2022-11-18T13:50:59;97589.84;;;-1.53;100.00
28008;BME280;15333;50.010;20.020;2022-11-18T13:54:00;97576.28;;;-1.44;100.00
28008;BME280;15333;50.010;20.020;2022-11-18T13:57:02;97593.75;;;-1.43;100.00
28008;BME280;15333;50.010;20.020;2022-11-18T14:00:14;97612.38;;;-1.49;100.00
28008;BME280;15333;50.010;20.020;2022-11-18T14:03:34;97601.38;;;-1.38;100.00
28008;BME280;15333;50.010;20.020;2022-11-18T14:06:40;97612.28;;;-1.47;100.00
28008;BME280;15333;50.010;20.020;2022-11-18T14:09:55;97605.28;;;-1.47;100.00
28008;BME280;15333;50.010;20.020;2022-11-18T14:12:58;97616.41;;;-1.42;100.00
28008;BME280;15333;50.010;20.020;2022-11-18T14:19:29;97612.53;;;-1.52;100.00
28008;BME280;15333;50.010;20.020;2022-11-18T14:22:31;97611.31;;;-1.45;100.00
28008;BME280;15333;50.010;20.020;2022-11-18T14:25:33;97615.66;;;-1.44;100.00
28008;BME280;15333;50.010;20.020;2022-11-18T14:28:36;97630.31;;;-1.40;99.31
28008;BME280;15333;50.010;20.020;2022-11-18T14:31:37;97627.84;;;-1.43;100.00
28008;BME280;15333;50.010;20.020;2022-11-18T14:34:38;97628.75;;;-1.44;98.85
28008;BME280;15333;50.010;20.020;2022-11-18T14:37:39;97630.53;;;-1.44;98.67
28008;BME280;15333;50.010;20.020;2022-11-18T14:40:40;97636.63;;;-1.44;99.14
28008;BME280;15333;50.010;20.020;2022-11-18T14:43:41;97631.50;;;-1.47;99.06
28008;BME280;15333;50.010;20.020;2022-11-18T14:47:13;97637.56;;;-1.45;98.61
28008;BME280;15333;50.010;20.020;2022-11-18T14:50:15;97655.84;;;-1.43;99.70
28008;BME280;15333;50.010;20.020;2022-11-18T14:53:18;97648.38;;;-1.34;98.97
28008;BME280;15333;50.010;20.020;2022-11-18T14:56:25;97651.19;;;-1.37;98.97
28008;BME280;15333;50.010;20.020;2022-11-18T14:59:26;97650.09;;;-1.33;97.47
28008;BME280;15333;50.010;20.020;2022-11-18T15:02:27;97650.38;;;-1.39;98.10
28008;BME280;15333;50.010;20.020;2022-11-18T15:05:28;97659.16;;;-1.40;96.21
28008;BME280;15333;50.010;20.020;2022-11-18T15:12:29;97663.72;;;-1.43;94.88
28008;BME280;15333;50.010;20.020;2022-11-18T15:15:30;97661.16;;;-1.45;93.61
28008;BME280;15333;50.010;20.020;2022-11-18T15:18:31;97668.19;;;-1.45;93.16
28008;BME280;15333;50.010;20.020;2022-11-18T15:21:32;97659.34;;;-1.43;92.59
28008;BME280;15333;50.010;20.020;2022-11-18T15:24:33;97661.97;;;-1.43;93.34
28008;BME280;15333;50.010;20.020;2022-11-18T15:27:34;97666.41;;;-1.45;91.65
28008;BME280;15333;50.010;20.020;2022-11-18T15:30:35;97658.66;;;-1.48;92.92
28008;BME280;15333;50.010;20.020;2022-11-18T15:33:36;97666.34;;;-1.43;92.20
28008;BME280;15333;50.010;20.020;2022-11-18T15:36:37;97668.97;;;-1.43;92.12
28008;BME280;15333;50.010;20.020;2022-11-18T15:39:37;97674.91;;;-1.40;93.98
28008;BME280;15333;50.010;20.020;2022-11-18T15:42:38;97682.72;;;-1.38;92.83
28008;BME280;15333;50.010;20.020;2022-11-18T15:45:39;97679.66;;;-1.48;92.56
28008;BME280;15333;50.010;20.020;2022-11-18T15:48:40;97687.81;;;-1.54;93.29
28008;BME280;15333;50.010;20.020;2022-11-18T15:51:41;97687.97;;;-1.57;92.54
28008;BME280;15333;50.010;20.020;2022-11-18T15:54:43;97689.00;;;-1.61;91.07
28008;BME280;15333;50.010;20.020;2022-11-18T15:57:44;97689.00;;;-1.61;91.71
28008;BME280;15333;50.010;20.020;2022-11-18T16:00:45;97698.59;;;-1.60;90.60
28008;BME280;15333;50.010;20.020;2022-11-18T16:03:46;97700.56;;;-1.65;89.53
28008;BME280;15333;50.010;20.020;2022-11-18T16:06:47;97695.31;;;-1.65;89.35
28008;BME280;15333;50.010;20.020;2022-11-18T16:09:48;97702.13;;;-1.61;88.68
28008;BME280;15333;50.010;20.020;2022-11-18T16:13:21;97706.44;;;-1.60;89.85
28008;BME280;15333;50.010;20.020;2022-11-18T16:16:23;97709.81;;;-1.56;91.12
28008;BME280;15333;50.010;20.020;2022-11-18T16:19:29;97724.69;;;-1.57;88.64
28008;BME280;15333;50.010;20.020;2022-11-18T16:22:32;97727.22;;;-1.55;90.53
28008;BME280;15333;50.010;20.020;2022-11-18T16:25:34;97724.53;;;-1.54;88.36
28008;BME280;15333;50.010;20.020;2022-11-18T16:28:34;97723.69;;;-1.54;88.48
28008;BME280;15333;50.010;20.020;2022-11-18T16:31:35;97724.53;;;-1.54;86.68
28008;BME280;15333;50.010;20.020;2022-11-18T16:34:39;97721.97;;;-1.55;86.72
28008;BME280;15333;50.010;20.020;2022-11-18T16:37:40;97724.69;;;-1.57;87.65
28008;BME280;15333;50.010;20.020;2022-11-18T16:40:41;97729.78;;;-1.54;88.67
28008;BME280;15333;50.010;20.020;2022-11-18T16:43:42;97724.69;;;-1.57;87.70
28008;BME280;15333;50.010;20.020;2022-11-18T16:46:47;97727.22;;;-1.55;88.24
28008;BME280;15333;50.010;20.020;2022-11-18T16:49:49;97736.03;;;-1.56;89.19
28008;BME280;15333;50.010;20.020;2022-11-18T16:52:49;97740.28;;;-1.54;88.67
28008;BME280;15333;50.010;20.020;2022-11-18T16:55:50;97740.44;;;-1.57;90.19
28008;BME280;15333;50.010;20.020;2022-11-18T16:59:02;97747.34;;;-1.56;90.34
28008;BME280;15333;50.010;20.020;2022-11-18T17:02:04;97746.94;;;-1.47;90.40
28008;BME280;15333;50.010;20.020;2022-11-18T17:05:05;97741.00;;;-1.50;90.72